Time;durP1;ratioP1;P1;durP2;ratioP2;P2;SDS_P1;SDS_P2;PMS_P1;PMS_P2;Temp;Humidity;BMP_temperature;BMP_pressure;BME280_temperature;BME280_humidity;BME280_pressure;Samples;Min_cycle;Max_cycle;Signal;HPM_P1;HPM_P2
2021/07/18 00:01:57;;;;;;;14.18;6.35;;;;;;;;;;143743;579;46022;-53
2021/07/18 00:04:24;;;;;;;12.25;6.55;;;;;;;;;;143731;615;47019;-53
2021/07/18 00:06:51;;;;;;;10.77;6.30;;;;;;;;;;143739;589;46012;-53
2021/07/18 00:09:18;;;;;;;10.63;6.43;;;;;;;;;;143739;574;45018;-53
2021/07/18 00:11:45;;;;;;;13.73;6.20;;;;;;;;;;143742;566;45025;-53
2021/07/18 00:14:13;;;;;;;10.90;6.18;;;;;;;;;;143739;581;47021;-53
2021/07/18 00:16:40;;;;;;;14.15;6.93;;;;;;;;;;143740;583;47012;-54
2021/07/18 00:19:07;;;;;;;10.73;5.93;;;;;;;;;;143738;595;45913;-54
2021/07/18 00:21:35;;;;;;;8.30;6.07;;;;;;;;;;143743;564;46023;-54
2021/07/18 00:24:04;;;;;;;9.35;5.60;;;;;;;;;;143741;566;47018;-54
2021/07/18 00:26:31;;;;;;;12.02;6.07;;;;;;;;;;143738;625;47013;-53
2021/07/18 00:28:58;;;;;;;11.43;5.85;;;;;;;;;;143735;585;45018;-54
2021/07/18 00:31:25;;;;;;;14.75;6.90;;;;;;;;;;143744;701;45022;-54
2021/07/18 00:33:52;;;;;;;8.50;5.62;;;;;;;;;;143739;613;47019;-54
2021/07/18 00:36:19;;;;;;;9.88;5.57;;;;;;;;;;143737;589;47012;-54
2021/07/18 00:38:46;;;;;;;13.00;6.12;;;;;;;;;;143738;587;45912;-54
2021/07/18 00:41:13;;;;;;;10.02;6.22;;;;;;;;;;143743;596;46022;-54
2021/07/18 00:43:40;;;;;;;7.25;5.75;;;;;;;;;;143739;615;47021;-54
2021/07/18 00:46:07;;;;;;;12.73;6.62;;;;;;;;;;143739;569;47012;-54
2021/07/18 00:48:35;;;;;;;11.68;6.72;;;;;;;;;;143738;597;45913;-54
2021/07/18 00:51:02;;;;;;;17.08;7.37;;;;;;;;;;143744;589;46023;-54
2021/07/18 00:53:30;;;;;;;10.85;6.40;;;;;;;;;;143733;628;47018;-54
2021/07/18 00:55:57;;;;;;;11.98;6.25;;;;;;;;;;143739;601;47013;-54
2021/07/18 00:58:28;;;;;;;9.85;6.50;;;;;;;;;;143738;577;45019;-53
2021/07/18 01:00:56;;;;;;;10.13;6.40;;;;;;;;;;143743;618;46022;-54
2021/07/18 01:03:25;;;;;;;10.35;6.28;;;;;;;;;;143740;591;47012;-54
2021/07/18 01:05:52;;;;;;;11.85;6.47;;;;;;;;;;143737;603;47012;-53
2021/07/18 01:08:19;;;;;;;10.15;6.30;;;;;;;;;;143741;565;45018;-54
2021/07/18 01:10:47;;;;;;;15.77;6.93;;;;;;;;;;143743;569;45023;-53
2021/07/18 01:13:14;;;;;;;13.98;6.85;;;;;;;;;;143740;585;47021;-53
2021/07/18 01:15:41;;;;;;;10.57;6.55;;;;;;;;;;143739;658;47012;-53
2021/07/18 01:18:10;;;;;;;9.55;6.12;;;;;;;;;;143734;588;46019;-53
2021/07/18 01:20:38;;;;;;;11.88;6.50;;;;;;;;;;143744;587;45023;-53
2021/07/18 01:23:05;;;;;;;14.75;7.20;;;;;;;;;;143739;650;47020;-53
2021/07/18 01:25:35;;;;;;;11.15;7.07;;;;;;;;;;143737;594;47013;-53
2021/07/18 01:28:07;;;;;;;9.43;5.95;;;;;;;;;;143738;604;45913;-53
2021/07/18 01:30:34;;;;;;;11.18;5.93;;;;;;;;;;143743;697;45022;-53
2021/07/18 01:33:01;;;;;;;8.68;6.60;;;;;;;;;;143739;603;47019;-54
2021/07/18 01:35:29;;;;;;;9.18;6.35;;;;;;;;;;143738;570;47012;-54
2021/07/18 01:37:58;;;;;;;9.07;6.78;;;;;;;;;;143741;569;45018;-53
2021/07/18 01:40:25;;;;;;;10.98;6.40;;;;;;;;;;143743;619;45024;-53
2021/07/18 01:42:54;;;;;;;11.75;6.72;;;;;;;;;;143734;662;47018;-54
2021/07/18 01:45:21;;;;;;;12.68;7.07;;;;;;;;;;143738;606;47012;-54
2021/07/18 01:47:48;;;;;;;9.00;6.50;;;;;;;;;;143741;583;45019;-53
2021/07/18 01:50:16;;;;;;;7.62;6.03;;;;;;;;;;143739;599;47014;-54
2021/07/18 01:52:43;;;;;;;13.90;6.82;;;;;;;;;;143739;607;47020;-54
2021/07/18 01:55:12;;;;;;;16.80;6.93;;;;;;;;;;143739;598;47012;-54
2021/07/18 01:57:40;;;;;;;13.40;7.12;;;;;;;;;;143738;594;46019;-53
2021/07/18 02:00:09;;;;;;;13.30;7.40;;;;;;;;;;143743;586;45022;-54
2021/07/18 02:02:36;;;;;;;10.55;7.15;;;;;;;;;;143740;584;47018;-53
2021/07/18 02:05:06;;;;;;;8.77;5.97;;;;;;;;;;143738;700;47012;-54
2021/07/18 02:07:33;;;;;;;12.05;6.40;;;;;;;;;;143733;569;45912;-54
2021/07/18 02:10:00;;;;;;;10.75;6.28;;;;;;;;;;143745;566;45023;-53
2021/07/18 02:12:27;;;;;;;12.30;7.00;;;;;;;;;;143738;597;47021;-54
2021/07/18 02:14:54;;;;;;;13.82;6.53;;;;;;;;;;143737;595;47012;-54
2021/07/18 02:17:21;;;;;;;12.35;7.00;;;;;;;;;;143740;787;47018;-53
2021/07/18 02:19:48;;;;;;;12.35;6.32;;;;;;;;;;143740;630;46023;-51
2021/07/18 02:22:15;;;;;;;17.02;8.30;;;;;;;;;;143739;848;47018;-52
2021/07/18 02:24:42;;;;;;;14.43;8.35;;;;;;;;;;143737;612;47012;-53
2021/07/18 02:27:10;;;;;;;11.43;6.72;;;;;;;;;;143740;618;45913;-52
2021/07/18 02:29:38;;;;;;;14.63;7.20;;;;;;;;;;143744;578;45022;-52
2021/07/18 02:32:04;;;;;;;9.85;6.93;;;;;;;;;;143735;564;47018;-53
2021/07/18 02:34:32;;;;;;;10.95;6.28;;;;;;;;;;143740;612;47013;-52
2021/07/18 02:36:59;;;;;;;12.40;6.70;;;;;;;;;;143739;564;45912;-52
2021/07/18 02:39:26;;;;;;;12.70;7.12;;;;;;;;;;143743;569;45022;-52
2021/07/18 02:41:53;;;;;;;13.00;7.68;;;;;;;;;;143739;566;47021;-52
2021/07/18 02:44:20;;;;;;;11.45;6.70;;;;;;;;;;143739;643;46918;-53
2021/07/18 02:46:47;;;;;;;14.50;7.32;;;;;;;;;;143742;613;45018;-51
2021/07/18 02:49:14;;;;;;;12.55;7.30;;;;;;;;;;143744;753;45023;-52
2021/07/18 02:51:41;;;;;;;12.80;7.00;;;;;;;;;;143740;642;47020;-52
2021/07/18 02:54:08;;;;;;;8.77;6.53;;;;;;;;;;143740;662;46878;-51
2021/07/18 02:56:35;;;;;;;12.70;6.95;;;;;;;;;;143735;633;45913;-54
2021/07/18 02:59:02;;;;;;;15.02;7.28;;;;;;;;;;143743;884;45022;-54
2021/07/18 03:01:29;;;;;;;11.75;7.50;;;;;;;;;;143739;576;47020;-55
2021/07/18 03:03:56;;;;;;;16.73;7.37;;;;;;;;;;143738;575;47012;-54
2021/07/18 03:06:23;;;;;;;15.23;8.50;;;;;;;;;;143739;643;45912;-55
2021/07/18 03:08:50;;;;;;;12.23;7.22;;;;;;;;;;143743;602;45023;-54
2021/07/18 03:11:17;;;;;;;10.48;6.72;;;;;;;;;;143738;576;47021;-54
2021/07/18 03:13:44;;;;;;;12.88;7.35;;;;;;;;;;143736;662;47012;-55
2021/07/18 03:16:11;;;;;;;12.00;7.50;;;;;;;;;;143738;565;47012;-54
2021/07/18 03:18:38;;;;;;;16.42;8.90;;;;;;;;;;143743;621;45023;-55
2021/07/18 03:21:05;;;;;;;12.05;7.20;;;;;;;;;;143732;611;47018;-54
2021/07/18 03:23:32;;;;;;;11.00;7.15;;;;;;;;;;143739;565;47012;-54
2021/07/18 03:25:59;;;;;;;18.23;8.85;;;;;;;;;;143736;702;46018;-54
2021/07/18 03:28:26;;;;;;;14.13;7.80;;;;;;;;;;143745;810;45022;-54
2021/07/18 03:30:53;;;;;;;14.07;8.50;;;;;;;;;;143739;567;47020;-55
2021/07/18 03:33:20;;;;;;;16.37;7.80;;;;;;;;;;143739;576;47013;-55
2021/07/18 03:35:47;;;;;;;14.80;8.27;;;;;;;;;;143741;582;45912;-53
2021/07/18 03:38:14;;;;;;;14.68;8.30;;;;;;;;;;143744;610;45022;-53
2021/07/18 03:40:41;;;;;;;16.02;6.97;;;;;;;;;;143741;609;47019;-53
2021/07/18 03:43:08;;;;;;;16.23;7.72;;;;;;;;;;143739;585;47012;-54
2021/07/18 03:45:35;;;;;;;12.30;7.50;;;;;;;;;;143734;565;45912;-54
2021/07/18 03:48:03;;;;;;;14.05;9.00;;;;;;;;;;143743;613;45023;-54
2021/07/18 03:50:30;;;;;;;11.93;7.12;;;;;;;;;;143740;565;47020;-54
2021/07/18 03:52:57;;;;;;;14.30;7.12;;;;;;;;;;143739;705;47012;-54
2021/07/18 03:55:24;;;;;;;12.20;7.05;;;;;;;;;;143740;632;45913;-54
2021/07/18 03:57:51;;;;;;;10.30;6.85;;;;;;;;;;143743;596;45022;-54
2021/07/18 04:00:18;;;;;;;13.40;8.20;;;;;;;;;;143743;565;47018;-54
2021/07/18 04:02:45;;;;;;;12.00;7.28;;;;;;;;;;143740;764;47012;-53
2021/07/18 04:05:12;;;;;;;16.87;8.00;;;;;;;;;;143739;564;45912;-54
2021/07/18 04:07:40;;;;;;;13.52;8.10;;;;;;;;;;143744;687;45022;-53
2021/07/18 04:10:07;;;;;;;17.90;8.88;;;;;;;;;;143733;677;47019;-54
2021/07/18 04:12:34;;;;;;;15.60;8.70;;;;;;;;;;143740;598;47012;-54
2021/07/18 04:15:01;;;;;;;11.70;8.35;;;;;;;;;;143742;611;45018;-54
2021/07/18 04:17:28;;;;;;;12.10;8.60;;;;;;;;;;143744;596;46023;-54
2021/07/18 04:19:55;;;;;;;15.50;8.52;;;;;;;;;;143741;594;47018;-54
2021/07/18 04:22:22;;;;;;;16.40;8.20;;;;;;;;;;143739;677;47012;-53
2021/07/18 04:24:49;;;;;;;17.33;9.15;;;;;;;;;;143740;601;45913;-54
2021/07/18 04:27:16;;;;;;;11.38;7.70;;;;;;;;;;143739;569;47012;-53
2021/07/18 04:29:43;;;;;;;15.25;7.50;;;;;;;;;;143742;610;47018;-54
2021/07/18 04:32:10;;;;;;;11.88;7.12;;;;;;;;;;143741;564;47013;-53
2021/07/18 04:34:41;;;;;;;17.20;7.05;;;;;;;;;;143737;593;45912;-53
2021/07/18 04:37:08;;;;;;;14.57;6.72;;;;;;;;;;143745;611;45022;-54
2021/07/18 04:39:35;;;;;;;21.75;6.85;;;;;;;;;;143742;579;47020;-53
2021/07/18 04:42:02;;;;;;;13.95;6.78;;;;;;;;;;143739;564;47012;-53
2021/07/18 04:44:29;;;;;;;16.23;8.13;;;;;;;;;;143740;590;45912;-53
2021/07/18 04:46:57;;;;;;;14.35;8.50;;;;;;;;;;143744;592;45023;-53
2021/07/18 04:49:25;;;;;;;21.23;8.05;;;;;;;;;;143741;606;47018;-53
2021/07/18 04:51:54;;;;;;;13.82;7.20;;;;;;;;;;143736;578;47012;-53
2021/07/18 04:54:22;;;;;;;14.50;9.75;;;;;;;;;;143741;669;45913;-53
2021/07/18 04:56:49;;;;;;;12.02;7.62;;;;;;;;;;143746;580;45022;-53
2021/07/18 04:59:16;;;;;;;19.77;7.80;;;;;;;;;;143734;619;47020;-52
2021/07/18 05:01:43;;;;;;;16.27;7.05;;;;;;;;;;143739;587;47013;-52
2021/07/18 05:04:10;;;;;;;12.13;6.87;;;;;;;;;;143738;600;45911;-53
2021/07/18 05:06:37;;;;;;;13.62;6.80;;;;;;;;;;143743;589;46012;-53
2021/07/18 05:09:04;;;;;;;11.30;6.82;;;;;;;;;;143737;588;47020;-53
2021/07/18 05:11:31;;;;;;;13.45;6.00;;;;;;;;;;143738;564;49012;-53
2021/07/18 05:13:58;;;;;;;9.93;6.43;;;;;;;;;;143740;573;45912;-53
2021/07/18 05:16:25;;;;;;;14.90;6.70;;;;;;;;;;143744;572;45023;-53
2021/07/18 05:18:53;;;;;;;9.90;6.07;;;;;;;;;;143742;570;47021;-53
2021/07/18 05:21:20;;;;;;;13.32;6.82;;;;;;;;;;143740;660;47012;-52
2021/07/18 05:23:47;;;;;;;17.98;6.57;;;;;;;;;;143737;573;45913;-53
2021/07/18 05:26:14;;;;;;;14.15;6.43;;;;;;;;;;143744;571;45023;-52
2021/07/18 05:28:41;;;;;;;15.20;6.53;;;;;;;;;;143741;581;47020;-53
2021/07/18 05:31:08;;;;;;;16.77;6.93;;;;;;;;;;143739;569;47013;-52
2021/07/18 05:33:35;;;;;;;10.27;6.62;;;;;;;;;;143742;570;45913;-52
2021/07/18 05:36:02;;;;;;;19.67;7.18;;;;;;;;;;143744;569;45022;-53
2021/07/18 05:38:29;;;;;;;11.68;7.05;;;;;;;;;;143744;573;47019;-53
2021/07/18 05:40:56;;;;;;;13.05;6.55;;;;;;;;;;143741;595;47012;-53
2021/07/18 05:43:23;;;;;;;10.82;6.10;;;;;;;;;;143742;626;45912;-53
2021/07/18 05:45:50;;;;;;;14.32;6.62;;;;;;;;;;143745;603;45023;-53
2021/07/18 05:48:23;;;;;;;11.60;7.20;;;;;;;;;;143734;570;47021;-53
2021/07/18 05:50:50;;;;;;;14.52;7.00;;;;;;;;;;143740;598;47012;-53
2021/07/18 05:53:17;;;;;;;12.73;6.37;;;;;;;;;;143742;585;45913;-53
2021/07/18 05:55:44;;;;;;;12.25;6.00;;;;;;;;;;143745;621;46023;-55
2021/07/18 05:58:11;;;;;;;13.00;6.55;;;;;;;;;;143742;573;47018;-54
2021/07/18 06:00:40;;;;;;;8.07;5.95;;;;;;;;;;143740;656;47012;-53
2021/07/18 06:03:07;;;;;;;15.10;7.15;;;;;;;;;;143742;652;45912;-53
2021/07/18 06:05:38;;;;;;;12.68;6.40;;;;;;;;;;143745;641;45022;-54
2021/07/18 06:08:05;;;;;;;18.12;9.65;;;;;;;;;;143742;569;47019;-53
2021/07/18 06:10:32;;;;;;;16.00;8.98;;;;;;;;;;143740;629;47012;-53
2021/07/18 06:12:59;;;;;;;14.68;8.52;;;;;;;;;;143737;587;45018;-53
2021/07/18 06:15:27;;;;;;;14.50;8.18;;;;;;;;;;143744;602;45023;-53
2021/07/18 06:17:54;;;;;;;13.10;6.55;;;;;;;;;;143741;572;47021;-53
2021/07/18 06:20:21;;;;;;;15.07;7.05;;;;;;;;;;143740;577;47012;-54
2021/07/18 06:22:51;;;;;;;11.75;6.10;;;;;;;;;;143743;614;45019;-53
2021/07/18 06:25:18;;;;;;;16.98;6.95;;;;;;;;;;143744;585;46022;-53
2021/07/18 06:27:46;;;;;;;13.35;7.35;;;;;;;;;;143741;579;47020;-52
2021/07/18 06:30:14;;;;;;;16.10;6.90;;;;;;;;;;143740;589;47013;-54
2021/07/18 06:32:42;;;;;;;11.30;6.60;;;;;;;;;;143741;604;45019;-53
2021/07/18 06:35:09;;;;;;;10.27;6.40;;;;;;;;;;143745;647;45022;-52
2021/07/18 06:37:36;;;;;;;12.27;6.82;;;;;;;;;;143736;570;47018;-54
2021/07/18 06:40:04;;;;;;;12.15;6.75;;;;;;;;;;143733;582;47012;-54
2021/07/18 06:42:32;;;;;;;14.43;6.32;;;;;;;;;;143739;579;45912;-53
2021/07/18 06:44:59;;;;;;;13.02;6.45;;;;;;;;;;143744;599;45023;-53
2021/07/18 06:47:29;;;;;;;11.70;6.07;;;;;;;;;;143741;570;47021;-53
2021/07/18 06:49:57;;;;;;;10.25;5.50;;;;;;;;;;143739;608;47012;-53
2021/07/18 06:52:27;;;;;;;14.32;6.10;;;;;;;;;;143742;584;45912;-53
2021/07/18 06:54:54;;;;;;;12.27;6.53;;;;;;;;;;143746;625;45023;-53
2021/07/18 06:57:21;;;;;;;14.48;6.12;;;;;;;;;;143741;714;47020;-53
2021/07/18 06:59:48;;;;;;;8.23;5.47;;;;;;;;;;143739;673;47012;-54
2021/07/18 07:02:15;;;;;;;16.35;6.50;;;;;;;;;;143737;570;45019;-54
2021/07/18 07:04:42;;;;;;;8.93;6.20;;;;;;;;;;143744;581;45022;-52
2021/07/18 07:07:10;;;;;;;13.45;6.05;;;;;;;;;;143741;590;47020;-52
2021/07/18 07:09:37;;;;;;;16.27;6.40;;;;;;;;;;143740;566;46012;-53
2021/07/18 07:12:04;;;;;;;18.05;6.43;;;;;;;;;;143742;602;45912;-52
2021/07/18 07:14:31;;;;;;;18.25;6.45;;;;;;;;;;143743;587;46013;-53
2021/07/18 07:16:58;;;;;;;9.43;6.68;;;;;;;;;;143742;782;47018;-53
2021/07/18 07:19:25;;;;;;;12.77;6.32;;;;;;;;;;143742;693;47012;-53
2021/07/18 07:21:52;;;;;;;11.88;6.50;;;;;;;;;;143742;673;45912;-53
2021/07/18 07:24:19;;;;;;;10.63;6.15;;;;;;;;;;143743;722;46012;-53
2021/07/18 07:26:46;;;;;;;16.17;6.65;;;;;;;;;;143733;569;47020;-54
2021/07/18 07:29:13;;;;;;;10.70;6.25;;;;;;;;;;143740;580;47012;-52
2021/07/18 07:31:41;;;;;;;13.30;6.35;;;;;;;;;;143742;570;45913;-53
2021/07/18 07:34:08;;;;;;;13.35;6.12;;;;;;;;;;143745;569;45022;-53
2021/07/18 07:36:35;;;;;;;20.48;6.93;;;;;;;;;;143741;571;47018;-52
2021/07/18 07:39:03;;;;;;;9.55;6.28;;;;;;;;;;143738;581;47013;-52
2021/07/18 07:41:30;;;;;;;12.85;6.60;;;;;;;;;;143743;696;45018;-53
2021/07/18 07:43:59;;;;;;;16.70;6.25;;;;;;;;;;143745;582;46022;-52
2021/07/18 07:46:26;;;;;;;8.82;5.85;;;;;;;;;;143741;633;47021;-52
2021/07/18 07:48:53;;;;;;;10.45;6.05;;;;;;;;;;143741;640;47012;-53
2021/07/18 07:51:21;;;;;;;12.00;6.45;;;;;;;;;;143736;613;45912;-52
2021/07/18 07:53:48;;;;;;;14.10;6.45;;;;;;;;;;143745;596;46023;-54
2021/07/18 07:56:15;;;;;;;12.43;6.70;;;;;;;;;;143744;573;47018;-52
2021/07/18 07:58:43;;;;;;;11.07;5.68;;;;;;;;;;143738;583;47013;-52
2021/07/18 08:01:10;;;;;;;12.68;6.10;;;;;;;;;;143741;642;45019;-51
2021/07/18 08:03:37;;;;;;;10.27;6.37;;;;;;;;;;143745;605;45022;-51
2021/07/18 08:06:04;;;;;;;12.73;6.30;;;;;;;;;;143741;604;47018;-51
2021/07/18 08:08:32;;;;;;;9.32;6.12;;;;;;;;;;143737;612;47012;-51
2021/07/18 08:10:59;;;;;;;12.70;7.25;;;;;;;;;;143740;574;45912;-52
2021/07/18 08:13:26;;;;;;;12.02;5.80;;;;;;;;;;143742;609;46015;-51
2021/07/18 08:15:53;;;;;;;10.00;6.05;;;;;;;;;;143733;579;47019;-51
2021/07/18 08:18:21;;;;;;;12.60;6.00;;;;;;;;;;143739;569;47012;-51
2021/07/18 08:20:48;;;;;;;11.93;6.03;;;;;;;;;;143740;581;45912;-51
2021/07/18 08:23:15;;;;;;;13.50;7.68;;;;;;;;;;143745;564;45023;-51
2021/07/18 08:25:42;;;;;;;13.90;6.75;;;;;;;;;;143741;592;47018;-52
2021/07/18 08:28:10;;;;;;;11.77;7.32;;;;;;;;;;143737;570;47012;-51
2021/07/18 08:30:37;;;;;;;12.02;6.18;;;;;;;;;;143742;604;45019;-51
2021/07/18 08:33:04;;;;;;;9.88;5.75;;;;;;;;;;143745;569;46022;-51
2021/07/18 08:35:31;;;;;;;13.82;6.60;;;;;;;;;;143742;563;47018;-53
2021/07/18 08:37:58;;;;;;;13.32;6.45;;;;;;;;;;143741;593;47012;-52
2021/07/18 08:40:26;;;;;;;18.48;7.93;;;;;;;;;;143735;571;45912;-52
2021/07/18 08:42:54;;;;;;;12.68;6.97;;;;;;;;;;143745;620;45022;-52
2021/07/18 08:45:22;;;;;;;19.80;9.65;;;;;;;;;;143741;658;47021;-52
2021/07/18 08:47:49;;;;;;;15.25;8.63;;;;;;;;;;143741;586;47012;-53
2021/07/18 08:50:16;;;;;;;11.18;6.40;;;;;;;;;;143739;579;45912;-52
2021/07/18 08:52:51;;;;;;;14.48;6.78;;;;;;;;;;143743;578;45023;-53
2021/07/18 08:55:19;;;;;;;14.90;7.18;;;;;;;;;;143741;588;47018;-52
2021/07/18 08:57:46;;;;;;;18.80;9.15;;;;;;;;;;143738;578;47012;-52
2021/07/18 09:00:14;;;;;;;21.27;8.38;;;;;;;;;;143739;569;45913;-53
2021/07/18 09:02:41;;;;;;;11.15;6.32;;;;;;;;;;143742;573;46022;-52
2021/07/18 09:05:09;;;;;;;16.73;6.53;;;;;;;;;;143733;674;47018;-52
2021/07/18 09:08:06;;;;;;;18.55;7.55;;;;;;;;;;143739;586;47012;-52
2021/07/18 09:10:33;;;;;;;11.48;7.07;;;;;;;;;;143740;588;45910;-53
2021/07/18 09:13:13;;;;;;;8.15;6.43;;;;;;;;;;143743;564;45022;-51
2021/07/18 09:15:48;;;;;;;13.23;7.00;;;;;;;;;;143738;613;47021;-52
2021/07/18 09:18:26;;;;;;;18.08;8.00;;;;;;;;;;143739;643;46032;-53
2021/07/18 09:20:55;;;;;;;10.23;5.97;;;;;;;;;;143738;573;45912;-52
2021/07/18 09:23:30;;;;;;;14.07;6.80;;;;;;;;;;143743;600;45023;-52
2021/07/18 09:26:25;;;;;;;11.20;6.93;;;;;;;;;;143740;590;47018;-53
2021/07/18 09:28:53;;;;;;;12.68;6.20;;;;;;;;;;143740;566;47012;-53
2021/07/18 09:31:38;;;;;;;15.90;7.32;;;;;;;;;;143735;620;45019;-53
2021/07/18 09:34:16;;;;;;;15.10;6.93;;;;;;;;;;143742;592;46022;-53
2021/07/18 09:36:43;;;;;;;19.87;8.35;;;;;;;;;;143740;587;47019;-53
2021/07/18 09:39:11;;;;;;;12.68;6.87;;;;;;;;;;143740;578;46012;-52
2021/07/18 09:41:40;;;;;;;16.90;7.10;;;;;;;;;;143740;580;45018;-51
2021/07/18 09:44:07;;;;;;;14.48;6.15;;;;;;;;;;143744;712;45023;-52
2021/07/18 09:46:36;;;;;;;11.73;6.87;;;;;;;;;;143740;585;47018;-52
2021/07/18 09:49:05;;;;;;;13.70;6.85;;;;;;;;;;143739;594;47012;-53
2021/07/18 09:51:32;;;;;;;10.15;6.05;;;;;;;;;;143741;564;45019;-53
2021/07/18 09:54:13;;;;;;;9.35;5.97;;;;;;;;;;143743;578;46022;-52
2021/07/18 09:56:41;;;;;;;15.95;7.90;;;;;;;;;;143732;672;47018;-53
2021/07/18 09:59:08;;;;;;;11.05;6.22;;;;;;;;;;143738;569;47012;-53
2021/07/18 10:01:35;;;;;;;11.32;6.45;;;;;;;;;;143738;616;45912;-54
2021/07/18 10:04:03;;;;;;;13.77;7.97;;;;;;;;;;143743;630;45022;-53
2021/07/18 10:06:32;;;;;;;21.20;8.18;;;;;;;;;;143741;564;47019;-54
2021/07/18 10:09:01;;;;;;;12.30;8.07;;;;;;;;;;143736;579;47012;-53
2021/07/18 10:11:30;;;;;;;12.15;7.82;;;;;;;;;;143740;588;45913;-53
2021/07/18 10:13:59;;;;;;;17.10;8.75;;;;;;;;;;143743;645;46022;-54
2021/07/18 10:16:29;;;;;;;22.30;8.82;;;;;;;;;;143733;572;49018;-52
2021/07/18 10:18:57;;;;;;;13.35;7.80;;;;;;;;;;143741;591;47012;-52
2021/07/18 10:21:27;;;;;;;14.20;8.25;;;;;;;;;;143735;611;45913;-54
2021/07/18 10:23:56;;;;;;;14.18;9.18;;;;;;;;;;143742;608;45022;-52
2021/07/18 10:26:25;;;;;;;19.30;9.13;;;;;;;;;;143739;581;47018;-54
2021/07/18 10:28:53;;;;;;;12.20;8.10;;;;;;;;;;143739;695;47012;-53
2021/07/18 10:31:49;;;;;;;12.98;8.13;;;;;;;;;;143740;585;45912;-53
2021/07/18 10:34:17;;;;;;;18.12;8.82;;;;;;;;;;143744;624;45022;-53
2021/07/18 10:36:44;;;;;;;12.37;8.55;;;;;;;;;;143740;569;47019;-53
2021/07/18 10:39:30;;;;;;;14.55;9.70;;;;;;;;;;143738;574;47012;-54
2021/07/18 10:41:58;;;;;;;13.27;8.63;;;;;;;;;;143739;620;45910;-54
2021/07/18 10:44:38;;;;;;;15.07;8.77;;;;;;;;;;143744;618;45023;-54
2021/07/18 10:47:04;;;;;;;13.07;8.57;;;;;;;;;;143734;632;47018;-54
2021/07/18 10:49:57;;;;;;;13.88;8.65;;;;;;;;;;143739;587;47012;-54
2021/07/18 10:52:34;;;;;;;12.35;8.82;;;;;;;;;;143741;576;45019;-55
2021/07/18 10:55:22;;;;;;;13.25;9.38;;;;;;;;;;143743;605;46022;-53
2021/07/18 10:57:52;;;;;;;17.67;9.43;;;;;;;;;;143740;569;47019;-54
2021/07/18 11:00:24;;;;;;;14.38;9.82;;;;;;;;;;143739;623;47012;-54
2021/07/18 11:03:09;;;;;;;14.93;8.98;;;;;;;;;;143737;585;46912;-54
2021/07/18 11:05:44;;;;;;;14.57;9.00;;;;;;;;;;143744;564;45023;-55
2021/07/18 11:08:12;;;;;;;14.90;9.35;;;;;;;;;;143738;564;47021;-54
2021/07/18 11:10:53;;;;;;;10.93;8.77;;;;;;;;;;143738;587;47012;-54
2021/07/18 11:13:22;;;;;;;15.27;9.15;;;;;;;;;;143735;599;45019;-55
2021/07/18 11:15:50;;;;;;;15.25;9.27;;;;;;;;;;143742;581;45022;-54
2021/07/18 11:18:35;;;;;;;12.75;9.07;;;;;;;;;;143739;579;47018;-55
2021/07/18 11:21:02;;;;;;;17.92;8.82;;;;;;;;;;143741;679;46022;-54
2021/07/18 11:23:42;;;;;;;14.05;8.48;;;;;;;;;;143741;645;45018;-54
2021/07/18 11:26:12;;;;;;;10.80;8.85;;;;;;;;;;143743;619;46022;-55
2021/07/18 11:28:52;;;;;;;12.35;8.15;;;;;;;;;;143739;572;47020;-53
2021/07/18 11:31:27;;;;;;;15.07;8.23;;;;;;;;;;143741;604;46012;-54
2021/07/18 11:34:11;;;;;;;13.38;8.10;;;;;;;;;;143739;583;45912;-55
2021/07/18 11:37:01;;;;;;;16.65;9.23;;;;;;;;;;143743;592;45023;-55
2021/07/18 11:39:29;;;;;;;13.98;9.05;;;;;;;;;;143734;599;47020;-54
2021/07/18 11:41:57;;;;;;;12.57;9.02;;;;;;;;;;143739;585;47012;-55
2021/07/18 11:44:25;;;;;;;15.82;8.50;;;;;;;;;;143738;570;45019;-54
2021/07/18 11:46:56;;;;;;;10.90;8.52;;;;;;;;;;143744;576;45022;-55
2021/07/18 11:49:27;;;;;;;11.05;8.40;;;;;;;;;;143740;579;47019;-53
2021/07/18 11:51:55;;;;;;;11.25;8.70;;;;;;;;;;143738;572;47013;-54
2021/07/18 11:54:22;;;;;;;12.88;8.75;;;;;;;;;;143740;680;45912;-55
2021/07/18 11:56:50;;;;;;;12.20;7.62;;;;;;;;;;143743;580;45022;-54
2021/07/18 11:59:19;;;;;;;21.90;7.82;;;;;;;;;;143739;591;47019;-54
2021/07/18 12:01:49;;;;;;;12.13;7.55;;;;;;;;;;143737;654;49012;-55
2021/07/18 12:04:22;;;;;;;12.48;8.25;;;;;;;;;;143735;566;45915;-54
2021/07/18 12:06:57;;;;;;;13.55;7.75;;;;;;;;;;143743;585;45021;-54
2021/07/18 12:09:32;;;;;;;12.70;8.27;;;;;;;;;;143740;685;47020;-54
2021/07/18 12:12:00;;;;;;;11.70;8.60;;;;;;;;;;143737;567;47012;-54
2021/07/18 12:14:37;;;;;;;14.18;8.70;;;;;;;;;;143737;592;47016;-56
2021/07/18 12:17:06;;;;;;;13.68;8.55;;;;;;;;;;143742;631;45022;-55
2021/07/18 12:19:34;;;;;;;16.62;7.95;;;;;;;;;;143738;623;47019;-53
2021/07/18 12:22:08;;;;;;;15.55;8.80;;;;;;;;;;143738;643;47012;-55
2021/07/18 12:24:38;;;;;;;12.05;8.23;;;;;;;;;;143742;565;45018;-55
2021/07/18 12:27:08;;;;;;;14.77;8.20;;;;;;;;;;143743;606;45023;-54
2021/07/18 12:29:55;;;;;;;12.63;8.57;;;;;;;;;;143733;587;47018;-54
2021/07/18 12:32:26;;;;;;;13.05;8.75;;;;;;;;;;143739;587;47012;-55
2021/07/18 12:34:55;;;;;;;14.32;8.25;;;;;;;;;;143739;615;45913;-53
2021/07/18 12:37:25;;;;;;;12.88;8.25;;;;;;;;;;143742;569;46023;-54
2021/07/18 12:40:03;;;;;;;15.52;9.45;;;;;;;;;;143739;615;47020;-53
2021/07/18 12:42:32;;;;;;;14.87;8.68;;;;;;;;;;143737;606;47013;-54
2021/07/18 12:45:03;;;;;;;14.57;8.52;;;;;;;;;;143738;650;45018;-53
2021/07/18 12:47:50;;;;;;;11.60;8.15;;;;;;;;;;143742;622;46022;-54
2021/07/18 12:50:28;;;;;;;10.68;8.23;;;;;;;;;;143739;628;47020;-54
2021/07/18 12:53:15;;;;;;;17.27;8.30;;;;;;;;;;143737;663;47012;-53
2021/07/18 12:55:58;;;;;;;14.57;9.07;;;;;;;;;;143734;632;45020;-54
2021/07/18 12:58:36;;;;;;;11.63;8.50;;;;;;;;;;143742;624;45023;-53
2021/07/18 13:01:12;;;;;;;17.37;8.35;;;;;;;;;;143739;581;47020;-54
2021/07/18 13:03:44;;;;;;;18.27;8.90;;;;;;;;;;143739;713;47012;-54
2021/07/18 13:06:30;;;;;;;10.57;8.00;;;;;;;;;;143740;574;45019;-54
2021/07/18 13:08:59;;;;;;;12.05;8.05;;;;;;;;;;143743;588;45022;-53
2021/07/18 13:11:45;;;;;;;13.55;8.75;;;;;;;;;;143738;607;47020;-54
2021/07/18 13:14:39;;;;;;;15.95;9.57;;;;;;;;;;143738;595;47012;-54
2021/07/18 13:17:16;;;;;;;13.75;8.50;;;;;;;;;;143738;701;45913;-53
2021/07/18 13:20:05;;;;;;;14.13;8.32;;;;;;;;;;143742;604;45023;-53
2021/07/18 13:22:34;;;;;;;11.82;8.98;;;;;;;;;;143733;623;47020;-54
2021/07/18 13:25:16;;;;;;;14.55;8.32;;;;;;;;;;143738;619;47028;-54
2021/07/18 13:27:43;;;;;;;12.50;8.27;;;;;;;;;;143737;736;45916;-54
2021/07/18 13:30:11;;;;;;;15.43;9.27;;;;;;;;;;143743;591;46022;-53
2021/07/18 13:32:44;;;;;;;19.55;9.73;;;;;;;;;;143739;594;47020;-52
2021/07/18 13:35:18;;;;;;;12.93;8.88;;;;;;;;;;143739;570;47013;-54
2021/07/18 13:37:53;;;;;;;16.48;8.95;;;;;;;;;;143740;641;45018;-53
2021/07/18 13:40:37;;;;;;;10.80;8.23;;;;;;;;;;143743;644;46022;-53
2021/07/18 13:43:36;;;;;;;10.55;8.27;;;;;;;;;;143740;596;47019;-55
2021/07/18 13:46:03;;;;;;;11.40;8.70;;;;;;;;;;143738;606;46012;-54
2021/07/18 13:48:33;;;;;;;14.10;9.63;;;;;;;;;;143735;637;45019;-54
2021/07/18 13:51:03;;;;;;;13.05;8.48;;;;;;;;;;143741;640;45023;-54
2021/07/18 13:53:30;;;;;;;14.05;8.90;;;;;;;;;;143737;601;47018;-54
2021/07/18 13:55:58;;;;;;;13.20;8.73;;;;;;;;;;143740;617;46013;-53
2021/07/18 13:58:25;;;;;;;12.13;9.30;;;;;;;;;;143739;603;45019;-54
2021/07/18 14:00:54;;;;;;;14.70;9.18;;;;;;;;;;143742;566;45022;-54
2021/07/18 14:03:21;;;;;;;13.05;8.20;;;;;;;;;;143740;593;47019;-54
2021/07/18 14:05:48;;;;;;;10.60;8.90;;;;;;;;;;143737;584;47013;-53
2021/07/18 14:08:15;;;;;;;16.33;8.55;;;;;;;;;;143738;599;45914;-53
2021/07/18 14:10:44;;;;;;;13.90;9.05;;;;;;;;;;143742;591;46022;-53
2021/07/18 14:13:11;;;;;;;13.02;9.38;;;;;;;;;;143733;681;47043;-54
2021/07/18 14:15:39;;;;;;;12.85;8.75;;;;;;;;;;143740;598;47012;-53
2021/07/18 14:18:08;;;;;;;16.42;9.32;;;;;;;;;;143736;572;45915;-53
2021/07/18 14:20:36;;;;;;;12.80;8.70;;;;;;;;;;143742;571;45023;-54
2021/07/18 14:23:04;;;;;;;12.80;8.88;;;;;;;;;;143739;616;47018;-54
2021/07/18 14:25:31;;;;;;;12.23;8.07;;;;;;;;;;143742;584;45920;-53
2021/07/18 14:28:01;;;;;;;11.20;8.68;;;;;;;;;;143740;677;45022;-53
2021/07/18 14:30:30;;;;;;;13.18;8.00;;;;;;;;;;143741;614;46022;-53
2021/07/18 14:32:58;;;;;;;16.17;8.73;;;;;;;;;;143741;590;47018;-53
2021/07/18 14:35:26;;;;;;;13.90;8.35;;;;;;;;;;143739;580;47012;-53
2021/07/18 14:37:54;;;;;;;9.68;8.45;;;;;;;;;;143735;623;45018;-54
2021/07/18 14:40:22;;;;;;;12.70;8.60;;;;;;;;;;143742;609;45022;-53
2021/07/18 14:42:50;;;;;;;11.52;8.98;;;;;;;;;;143741;601;47021;-54
2021/07/18 14:45:18;;;;;;;15.35;8.98;;;;;;;;;;143737;592;47012;-54